sensor_id;sensor_type;location;lat;lon;timestamp;P1;durP1;ratioP1;P2;durP2;ratioP2
70301;SDS011;57706;56.326;43.882;2023-04-24T00:00:57;15.02;;;6.57;;
70301;SDS011;57706;56.326;43.882;2023-04-24T00:03:24;16.10;;;7.90;;
70301;SDS011;57706;56.326;43.882;2023-04-24T00:05:51;18.40;;;8.85;;
70301;SDS011;57706;56.326;43.882;2023-04-24T00:08:17;10.82;;;6.45;;
70301;SDS011;57706;56.326;43.882;2023-04-24T00:10:44;16.52;;;7.18;;
70301;SDS011;57706;56.326;43.882;2023-04-24T00:13:11;14.45;;;7.72;;
70301;SDS011;57706;56.326;43.882;2023-04-24T00:15:37;17.60;;;7.18;;
70301;SDS011;57706;56.326;43.882;2023-04-24T00:18:03;14.02;;;6.90;;
70301;SDS011;57706;56.326;43.882;2023-04-24T00:20:29;14.88;;;6.03;;
70301;SDS011;57706;56.326;43.882;2023-04-24T00:22:55;13.88;;;6.35;;
70301;SDS011;57706;56.326;43.882;2023-04-24T00:25:21;13.13;;;6.53;;
70301;SDS011;57706;56.326;43.882;2023-04-24T00:27:47;17.10;;;6.30;;
70301;SDS011;57706;56.326;43.882;2023-04-24T00:30:13;12.07;;;6.43;;
70301;SDS011;57706;56.326;43.882;2023-04-24T00:32:39;10.32;;;5.47;;
70301;SDS011;57706;56.326;43.882;2023-04-24T00:35:05;14.02;;;5.97;;
70301;SDS011;57706;56.326;43.882;2023-04-24T00:37:32;9.18;;;6.20;;
70301;SDS011;57706;56.326;43.882;2023-04-24T00:39:57;11.82;;;6.28;;
70301;SDS011;57706;56.326;43.882;2023-04-24T00:42:24;10.45;;;6.63;;
70301;SDS011;57706;56.326;43.882;2023-04-24T00:44:50;13.50;;;6.10;;
70301;SDS011;57706;56.326;43.882;2023-04-24T00:47:16;10.13;;;5.88;;
70301;SDS011;57706;56.326;43.882;2023-04-24T00:49:44;8.52;;;5.10;;
70301;SDS011;57706;56.326;43.882;2023-04-24T00:52:10;10.63;;;6.05;;
70301;SDS011;57706;56.326;43.882;2023-04-24T00:54:37;8.52;;;5.60;;
70301;SDS011;57706;56.326;43.882;2023-04-24T00:57:03;12.77;;;6.18;;
70301;SDS011;57706;56.326;43.882;2023-04-24T00:59:30;14.65;;;4.95;;
70301;SDS011;57706;56.326;43.882;2023-04-24T01:01:56;11.20;;;4.57;;
70301;SDS011;57706;56.326;43.882;2023-04-24T01:04:23;9.43;;;5.50;;
70301;SDS011;57706;56.326;43.882;2023-04-24T01:06:51;7.47;;;4.50;;
70301;SDS011;57706;56.326;43.882;2023-04-24T01:09:18;7.03;;;5.22;;
70301;SDS011;57706;56.326;43.882;2023-04-24T01:11:44;6.57;;;4.78;;
70301;SDS011;57706;56.326;43.882;2023-04-24T01:14:11;8.55;;;4.93;;
70301;SDS011;57706;56.326;43.882;2023-04-24T01:16:37;8.63;;;4.90;;
70301;SDS011;57706;56.326;43.882;2023-04-24T01:19:04;7.30;;;4.90;;
70301;SDS011;57706;56.326;43.882;2023-04-24T01:21:31;8.40;;;4.45;;
70301;SDS011;57706;56.326;43.882;2023-04-24T01:24:02;7.70;;;5.03;;
70301;SDS011;57706;56.326;43.882;2023-04-24T01:26:29;9.40;;;4.88;;
70301;SDS011;57706;56.326;43.882;2023-04-24T01:28:54;9.10;;;4.28;;
70301;SDS011;57706;56.326;43.882;2023-04-24T01:31:21;6.60;;;4.60;;
70301;SDS011;57706;56.326;43.882;2023-04-24T01:33:47;9.77;;;4.45;;
70301;SDS011;57706;56.326;43.882;2023-04-24T01:36:13;7.22;;;4.05;;
70301;SDS011;57706;56.326;43.882;2023-04-24T01:38:39;9.88;;;4.75;;
70301;SDS011;57706;56.326;43.882;2023-04-24T01:41:05;8.07;;;4.32;;
70301;SDS011;57706;56.326;43.882;2023-04-24T01:43:31;8.98;;;5.05;;
70301;SDS011;57706;56.326;43.882;2023-04-24T01:45:58;8.40;;;4.65;;
70301;SDS011;57706;56.326;43.882;2023-04-24T01:48:23;6.93;;;4.10;;
70301;SDS011;57706;56.326;43.882;2023-04-24T01:50:51;7.70;;;3.72;;
70301;SDS011;57706;56.326;43.882;2023-04-24T01:53:17;8.02;;;4.60;;
70301;SDS011;57706;56.326;43.882;2023-04-24T01:55:42;6.72;;;4.53;;
70301;SDS011;57706;56.326;43.882;2023-04-24T01:58:08;8.57;;;4.57;;
70301;SDS011;57706;56.326;43.882;2023-04-24T02:00:35;8.63;;;4.63;;
70301;SDS011;57706;56.326;43.882;2023-04-24T02:03:01;7.53;;;4.25;;
70301;SDS011;57706;56.326;43.882;2023-04-24T02:05:27;10.13;;;4.18;;
70301;SDS011;57706;56.326;43.882;2023-04-24T02:07:55;11.50;;;4.88;;
70301;SDS011;57706;56.326;43.882;2023-04-24T02:10:21;10.23;;;4.60;;
70301;SDS011;57706;56.326;43.882;2023-04-24T02:12:48;17.38;;;4.75;;
70301;SDS011;57706;56.326;43.882;2023-04-24T02:15:15;10.10;;;5.13;;
70301;SDS011;57706;56.326;43.882;2023-04-24T02:17:42;8.85;;;5.45;;
70301;SDS011;57706;56.326;43.882;2023-04-24T02:20:08;11.88;;;5.78;;
70301;SDS011;57706;56.326;43.882;2023-04-24T02:22:34;10.15;;;5.47;;
70301;SDS011;57706;56.326;43.882;2023-04-24T02:25:02;11.23;;;4.93;;
70301;SDS011;57706;56.326;43.882;2023-04-24T02:27:32;6.35;;;4.85;;
70301;SDS011;57706;56.326;43.882;2023-04-24T02:29:58;11.18;;;5.63;;
70301;SDS011;57706;56.326;43.882;2023-04-24T02:32:24;12.75;;;5.05;;
70301;SDS011;57706;56.326;43.882;2023-04-24T02:34:50;9.40;;;4.63;;
70301;SDS011;57706;56.326;43.882;2023-04-24T02:37:16;13.75;;;4.80;;
70301;SDS011;57706;56.326;43.882;2023-04-24T02:39:43;11.07;;;5.53;;
70301;SDS011;57706;56.326;43.882;2023-04-24T02:42:09;8.77;;;5.10;;
70301;SDS011;57706;56.326;43.882;2023-04-24T02:44:35;11.43;;;5.82;;
70301;SDS011;57706;56.326;43.882;2023-04-24T02:47:01;8.45;;;5.60;;
70301;SDS011;57706;56.326;43.882;2023-04-24T02:49:27;12.82;;;5.95;;
70301;SDS011;57706;56.326;43.882;2023-04-24T02:51:54;9.18;;;4.32;;
70301;SDS011;57706;56.326;43.882;2023-04-24T02:54:20;12.90;;;5.80;;
70301;SDS011;57706;56.326;43.882;2023-04-24T02:56:46;8.05;;;5.15;;
70301;SDS011;57706;56.326;43.882;2023-04-24T02:59:12;10.35;;;5.60;;
70301;SDS011;57706;56.326;43.882;2023-04-24T03:01:38;7.82;;;5.43;;
70301;SDS011;57706;56.326;43.882;2023-04-24T03:04:04;12.32;;;7.15;;
70301;SDS011;57706;56.326;43.882;2023-04-24T03:06:30;9.85;;;5.95;;
70301;SDS011;57706;56.326;43.882;2023-04-24T03:09:01;13.40;;;5.72;;
70301;SDS011;57706;56.326;43.882;2023-04-24T03:11:27;11.27;;;5.47;;
70301;SDS011;57706;56.326;43.882;2023-04-24T03:13:53;14.15;;;5.60;;
70301;SDS011;57706;56.326;43.882;2023-04-24T03:16:19;11.32;;;5.20;;
70301;SDS011;57706;56.326;43.882;2023-04-24T03:18:46;7.78;;;5.03;;
70301;SDS011;57706;56.326;43.882;2023-04-24T03:21:13;11.13;;;5.70;;
70301;SDS011;57706;56.326;43.882;2023-04-24T03:23:40;14.75;;;5.43;;
70301;SDS011;57706;56.326;43.882;2023-04-24T03:26:06;11.57;;;5.15;;
70301;SDS011;57706;56.326;43.882;2023-04-24T03:28:35;15.82;;;5.70;;
70301;SDS011;57706;56.326;43.882;2023-04-24T03:31:03;13.07;;;5.25;;
70301;SDS011;57706;56.326;43.882;2023-04-24T03:33:33;21.17;;;5.38;;
70301;SDS011;57706;56.326;43.882;2023-04-24T03:36:00;17.00;;;6.07;;
70301;SDS011;57706;56.326;43.882;2023-04-24T03:38:33;17.50;;;5.65;;
70301;SDS011;57706;56.326;43.882;2023-04-24T03:41:20;17.60;;;5.60;;
70301;SDS011;57706;56.326;43.882;2023-04-24T03:43:54;12.18;;;5.00;;
70301;SDS011;57706;56.326;43.882;2023-04-24T03:46:20;10.02;;;5.40;;
70301;SDS011;57706;56.326;43.882;2023-04-24T03:48:52;23.70;;;6.13;;
70301;SDS011;57706;56.326;43.882;2023-04-24T03:51:21;11.98;;;6.32;;
70301;SDS011;57706;56.326;43.882;2023-04-24T03:53:51;15.60;;;6.63;;
70301;SDS011;57706;56.326;43.882;2023-04-24T03:56:19;14.20;;;5.53;;
70301;SDS011;57706;56.326;43.882;2023-04-24T03:58:46;16.75;;;5.82;;
70301;SDS011;57706;56.326;43.882;2023-04-24T04:01:12;11.80;;;5.00;;
70301;SDS011;57706;56.326;43.882;2023-04-24T04:04:01;14.68;;;5.80;;
70301;SDS011;57706;56.326;43.882;2023-04-24T04:06:28;18.83;;;5.53;;
70301;SDS011;57706;56.326;43.882;2023-04-24T04:08:58;10.20;;;5.03;;
70301;SDS011;57706;56.326;43.882;2023-04-24T04:11:24;10.88;;;5.07;;
70301;SDS011;57706;56.326;43.882;2023-04-24T04:13:50;13.38;;;4.35;;
70301;SDS011;57706;56.326;43.882;2023-04-24T04:16:19;11.45;;;4.57;;
70301;SDS011;57706;56.326;43.882;2023-04-24T04:18:47;11.80;;;5.70;;
70301;SDS011;57706;56.326;43.882;2023-04-24T04:21:14;10.20;;;5.22;;
70301;SDS011;57706;56.326;43.882;2023-04-24T04:23:40;10.75;;;5.40;;
70301;SDS011;57706;56.326;43.882;2023-04-24T04:26:15;10.82;;;5.20;;
70301;SDS011;57706;56.326;43.882;2023-04-24T04:28:58;16.98;;;5.57;;
70301;SDS011;57706;56.326;43.882;2023-04-24T04:31:26;9.82;;;4.45;;
70301;SDS011;57706;56.326;43.882;2023-04-24T04:33:53;11.70;;;4.28;;
70301;SDS011;57706;56.326;43.882;2023-04-24T04:36:20;10.45;;;4.90;;
70301;SDS011;57706;56.326;43.882;2023-04-24T04:38:51;11.20;;;5.05;;
70301;SDS011;57706;56.326;43.882;2023-04-24T04:41:40;7.40;;;4.10;;
70301;SDS011;57706;56.326;43.882;2023-04-24T04:44:07;7.60;;;4.47;;
70301;SDS011;57706;56.326;43.882;2023-04-24T04:46:35;9.93;;;5.35;;
70301;SDS011;57706;56.326;43.882;2023-04-24T04:49:10;15.77;;;4.50;;
70301;SDS011;57706;56.326;43.882;2023-04-24T04:51:37;9.63;;;4.55;;
70301;SDS011;57706;56.326;43.882;2023-04-24T04:54:03;11.65;;;4.72;;
70301;SDS011;57706;56.326;43.882;2023-04-24T04:56:29;10.32;;;4.47;;
70301;SDS011;57706;56.326;43.882;2023-04-24T04:58:57;12.50;;;4.38;;
70301;SDS011;57706;56.326;43.882;2023-04-24T05:01:25;8.68;;;4.78;;
70301;SDS011;57706;56.326;43.882;2023-04-24T05:03:54;14.07;;;5.40;;
70301;SDS011;57706;56.326;43.882;2023-04-24T05:06:20;10.85;;;5.07;;
70301;SDS011;57706;56.326;43.882;2023-04-24T05:08:46;8.98;;;5.03;;
70301;SDS011;57706;56.326;43.882;2023-04-24T05:11:32;9.90;;;4.88;;
70301;SDS011;57706;56.326;43.882;2023-04-24T05:14:00;12.70;;;4.45;;
70301;SDS011;57706;56.326;43.882;2023-04-24T05:16:37;11.55;;;4.50;;
70301;SDS011;57706;56.326;43.882;2023-04-24T05:19:04;9.20;;;4.22;;
70301;SDS011;57706;56.326;43.882;2023-04-24T05:21:35;7.50;;;4.65;;
70301;SDS011;57706;56.326;43.882;2023-04-24T05:24:01;18.77;;;4.95;;
70301;SDS011;57706;56.326;43.882;2023-04-24T05:26:46;11.02;;;4.15;;
70301;SDS011;57706;56.326;43.882;2023-04-24T05:29:14;8.75;;;4.43;;
70301;SDS011;57706;56.326;43.882;2023-04-24T05:31:41;9.77;;;3.92;;
70301;SDS011;57706;56.326;43.882;2023-04-24T05:34:07;16.15;;;4.65;;
70301;SDS011;57706;56.326;43.882;2023-04-24T05:36:37;12.95;;;4.15;;
70301;SDS011;57706;56.326;43.882;2023-04-24T05:39:03;10.20;;;3.92;;
70301;SDS011;57706;56.326;43.882;2023-04-24T05:41:30;10.30;;;4.13;;
70301;SDS011;57706;56.326;43.882;2023-04-24T05:43:56;10.63;;;4.28;;
70301;SDS011;57706;56.326;43.882;2023-04-24T05:46:22;11.25;;;3.97;;
70301;SDS011;57706;56.326;43.882;2023-04-24T05:48:49;8.27;;;4.07;;
70301;SDS011;57706;56.326;43.882;2023-04-24T05:51:16;13.75;;;3.63;;
70301;SDS011;57706;56.326;43.882;2023-04-24T05:53:41;9.55;;;3.83;;
70301;SDS011;57706;56.326;43.882;2023-04-24T05:56:08;17.25;;;4.00;;
70301;SDS011;57706;56.326;43.882;2023-04-24T05:58:35;7.22;;;3.92;;
70301;SDS011;57706;56.326;43.882;2023-04-24T06:01:01;5.35;;;3.20;;
70301;SDS011;57706;56.326;43.882;2023-04-24T06:03:28;8.15;;;3.47;;
70301;SDS011;57706;56.326;43.882;2023-04-24T06:05:54;10.25;;;3.38;;
70301;SDS011;57706;56.326;43.882;2023-04-24T06:08:21;15.52;;;4.05;;
70301;SDS011;57706;56.326;43.882;2023-04-24T06:10:48;5.88;;;3.67;;
70301;SDS011;57706;56.326;43.882;2023-04-24T06:13:16;9.38;;;4.32;;
70301;SDS011;57706;56.326;43.882;2023-04-24T06:15:52;7.80;;;3.90;;
70301;SDS011;57706;56.326;43.882;2023-04-24T06:18:27;10.57;;;4.00;;
70301;SDS011;57706;56.326;43.882;2023-04-24T06:20:53;9.40;;;4.18;;
70301;SDS011;57706;56.326;43.882;2023-04-24T06:23:20;7.80;;;3.85;;
70301;SDS011;57706;56.326;43.882;2023-04-24T06:25:47;7.13;;;4.22;;
70301;SDS011;57706;56.326;43.882;2023-04-24T06:28:13;5.68;;;3.50;;
70301;SDS011;57706;56.326;43.882;2023-04-24T06:30:38;10.20;;;3.80;;
70301;SDS011;57706;56.326;43.882;2023-04-24T06:33:04;6.55;;;3.65;;
70301;SDS011;57706;56.326;43.882;2023-04-24T06:35:30;8.95;;;3.63;;
70301;SDS011;57706;56.326;43.882;2023-04-24T06:37:56;11.38;;;3.60;;
70301;SDS011;57706;56.326;43.882;2023-04-24T06:40:22;7.10;;;3.35;;
70301;SDS011;57706;56.326;43.882;2023-04-24T06:42:48;10.20;;;3.78;;
70301;SDS011;57706;56.326;43.882;2023-04-24T06:45:14;7.38;;;3.08;;
70301;SDS011;57706;56.326;43.882;2023-04-24T06:47:40;9.65;;;3.53;;
70301;SDS011;57706;56.326;43.882;2023-04-24T06:50:06;4.50;;;3.33;;
70301;SDS011;57706;56.326;43.882;2023-04-24T06:52:32;10.85;;;3.92;;
70301;SDS011;57706;56.326;43.882;2023-04-24T06:55:02;7.70;;;3.10;;
70301;SDS011;57706;56.326;43.882;2023-04-24T06:57:31;7.93;;;4.18;;
70301;SDS011;57706;56.326;43.882;2023-04-24T06:59:57;8.60;;;3.90;;
70301;SDS011;57706;56.326;43.882;2023-04-24T07:02:24;8.10;;;3.25;;
70301;SDS011;57706;56.326;43.882;2023-04-24T07:04:50;13.15;;;2.95;;
70301;SDS011;57706;56.326;43.882;2023-04-24T07:07:16;8.27;;;3.83;;
70301;SDS011;57706;56.326;43.882;2023-04-24T07:09:42;16.75;;;3.90;;
70301;SDS011;57706;56.326;43.882;2023-04-24T07:12:09;3.80;;;3.30;;
70301;SDS011;57706;56.326;43.882;2023-04-24T07:14:39;8.88;;;3.80;;
70301;SDS011;57706;56.326;43.882;2023-04-24T07:17:05;6.97;;;4.45;;
70301;SDS011;57706;56.326;43.882;2023-04-24T07:19:34;8.20;;;4.45;;
70301;SDS011;57706;56.326;43.882;2023-04-24T07:22:03;10.65;;;4.60;;
70301;SDS011;57706;56.326;43.882;2023-04-24T07:24:29;8.75;;;5.20;;
70301;SDS011;57706;56.326;43.882;2023-04-24T07:26:57;11.07;;;3.92;;
70301;SDS011;57706;56.326;43.882;2023-04-24T07:29:23;14.23;;;3.75;;
70301;SDS011;57706;56.326;43.882;2023-04-24T07:31:50;6.53;;;3.60;;
70301;SDS011;57706;56.326;43.882;2023-04-24T07:34:15;10.43;;;4.40;;
70301;SDS011;57706;56.326;43.882;2023-04-24T07:36:41;8.23;;;3.90;;
70301;SDS011;57706;56.326;43.882;2023-04-24T07:39:07;11.93;;;3.50;;
70301;SDS011;57706;56.326;43.882;2023-04-24T07:41:33;8.60;;;4.40;;
70301;SDS011;57706;56.326;43.882;2023-04-24T07:43:59;10.13;;;4.15;;
70301;SDS011;57706;56.326;43.882;2023-04-24T07:46:25;15.32;;;3.30;;
70301;SDS011;57706;56.326;43.882;2023-04-24T07:48:55;16.08;;;3.95;;
70301;SDS011;57706;56.326;43.882;2023-04-24T07:51:21;10.82;;;3.55;;
70301;SDS011;57706;56.326;43.882;2023-04-24T07:53:47;10.95;;;4.00;;
70301;SDS011;57706;56.326;43.882;2023-04-24T07:56:13;46.65;;;5.72;;
70301;SDS011;57706;56.326;43.882;2023-04-24T07:58:39;6.90;;;4.43;;
70301;SDS011;57706;56.326;43.882;2023-04-24T08:01:05;13.25;;;4.75;;
70301;SDS011;57706;56.326;43.882;2023-04-24T08:03:31;15.57;;;3.58;;
70301;SDS011;57706;56.326;43.882;2023-04-24T08:05:57;10.85;;;3.92;;
70301;SDS011;57706;56.326;43.882;2023-04-24T08:08:23;7.95;;;4.30;;
70301;SDS011;57706;56.326;43.882;2023-04-24T08:10:49;11.40;;;4.28;;
70301;SDS011;57706;56.326;43.882;2023-04-24T08:13:15;8.80;;;4.47;;
70301;SDS011;57706;56.326;43.882;2023-04-24T08:15:41;10.73;;;4.35;;
70301;SDS011;57706;56.326;43.882;2023-04-24T08:18:07;16.63;;;5.20;;
70301;SDS011;57706;56.326;43.882;2023-04-24T08:20:33;14.25;;;4.70;;
70301;SDS011;57706;56.326;43.882;2023-04-24T08:23:00;7.95;;;5.25;;
70301;SDS011;57706;56.326;43.882;2023-04-24T08:25:26;7.57;;;4.90;;
70301;SDS011;57706;56.326;43.882;2023-04-24T08:27:52;7.90;;;5.38;;
70301;SDS011;57706;56.326;43.882;2023-04-24T08:30:18;11.38;;;5.55;;
70301;SDS011;57706;56.326;43.882;2023-04-24T08:32:44;7.50;;;5.32;;
70301;SDS011;57706;56.326;43.882;2023-04-24T08:35:10;7.13;;;4.97;;
70301;SDS011;57706;56.326;43.882;2023-04-24T08:37:36;11.57;;;4.57;;
70301;SDS011;57706;56.326;43.882;2023-04-24T08:40:03;12.38;;;4.60;;
70301;SDS011;57706;56.326;43.882;2023-04-24T08:42:36;8.02;;;5.00;;
70301;SDS011;57706;56.326;43.882;2023-04-24T08:45:02;8.98;;;5.30;;
70301;SDS011;57706;56.326;43.882;2023-04-24T08:47:29;5.57;;;4.75;;
70301;SDS011;57706;56.326;43.882;2023-04-24T08:49:56;8.13;;;5.05;;
70301;SDS011;57706;56.326;43.882;2023-04-24T08:52:25;9.00;;;5.18;;
70301;SDS011;57706;56.326;43.882;2023-04-24T08:54:51;8.25;;;5.22;;
70301;SDS011;57706;56.326;43.882;2023-04-24T08:57:19;7.20;;;4.15;;
70301;SDS011;57706;56.326;43.882;2023-04-24T08:59:45;12.27;;;4.22;;
70301;SDS011;57706;56.326;43.882;2023-04-24T09:02:12;10.57;;;4.82;;
70301;SDS011;57706;56.326;43.882;2023-04-24T09:04:40;6.32;;;4.65;;
70301;SDS011;57706;56.326;43.882;2023-04-24T09:07:08;8.00;;;4.45;;
70301;SDS011;57706;56.326;43.882;2023-04-24T09:09:37;8.57;;;4.68;;
70301;SDS011;57706;56.326;43.882;2023-04-24T09:12:04;8.32;;;4.90;;
70301;SDS011;57706;56.326;43.882;2023-04-24T09:14:30;5.15;;;3.95;;
70301;SDS011;57706;56.326;43.882;2023-04-24T09:16:57;8.90;;;4.15;;
70301;SDS011;57706;56.326;43.882;2023-04-24T09:19:23;10.27;;;4.00;;
70301;SDS011;57706;56.326;43.882;2023-04-24T09:21:49;5.57;;;4.30;;
70301;SDS011;57706;56.326;43.882;2023-04-24T09:24:18;5.93;;;4.80;;
70301;SDS011;57706;56.326;43.882;2023-04-24T09:26:49;4.97;;;4.45;;
70301;SDS011;57706;56.326;43.882;2023-04-24T09:29:22;6.80;;;3.90;;
70301;SDS011;57706;56.326;43.882;2023-04-24T09:31:48;7.32;;;3.90;;
70301;SDS011;57706;56.326;43.882;2023-04-24T09:34:14;6.60;;;4.00;;
70301;SDS011;57706;56.326;43.882;2023-04-24T09:36:41;5.78;;;4.07;;
70301;SDS011;57706;56.326;43.882;2023-04-24T09:39:09;7.70;;;4.25;;
70301;SDS011;57706;56.326;43.882;2023-04-24T09:41:47;9.30;;;3.45;;
70301;SDS011;57706;56.326;43.882;2023-04-24T09:44:21;11.27;;;3.88;;
70301;SDS011;57706;56.326;43.882;2023-04-24T09:46:49;7.28;;;3.67;;
70301;SDS011;57706;56.326;43.882;2023-04-24T09:49:29;8.27;;;3.85;;
70301;SDS011;57706;56.326;43.882;2023-04-24T09:52:05;9.30;;;3.63;;
70301;SDS011;57706;56.326;43.882;2023-04-24T09:54:32;11.25;;;3.60;;
70301;SDS011;57706;56.326;43.882;2023-04-24T09:56:58;9.13;;;3.33;;
70301;SDS011;57706;56.326;43.882;2023-04-24T09:59:25;5.65;;;3.40;;
70301;SDS011;57706;56.326;43.882;2023-04-24T10:01:51;8.23;;;3.50;;
70301;SDS011;57706;56.326;43.882;2023-04-24T10:06:53;13.13;;;3.85;;
70301;SDS011;57706;56.326;43.882;2023-04-24T10:09:22;7.38;;;4.00;;
70301;SDS011;57706;56.326;43.882;2023-04-24T10:11:50;7.55;;;3.97;;
70301;SDS011;57706;56.326;43.882;2023-04-24T10:14:17;5.93;;;3.90;;
70301;SDS011;57706;56.326;43.882;2023-04-24T10:16:46;7.35;;;3.30;;
70301;SDS011;57706;56.326;43.882;2023-04-24T10:19:13;6.22;;;3.53;;
70301;SDS011;57706;56.326;43.882;2023-04-24T10:21:41;5.88;;;3.75;;
70301;SDS011;57706;56.326;43.882;2023-04-24T10:24:12;4.90;;;3.42;;
70301;SDS011;57706;56.326;43.882;2023-04-24T10:26:41;7.10;;;3.50;;
70301;SDS011;57706;56.326;43.882;2023-04-24T10:29:07;11.00;;;3.03;;
70301;SDS011;57706;56.326;43.882;2023-04-24T10:31:36;8.48;;;3.85;;
70301;SDS011;57706;56.326;43.882;2023-04-24T10:34:04;6.40;;;3.75;;
70301;SDS011;57706;56.326;43.882;2023-04-24T10:36:32;6.30;;;3.40;;
70301;SDS011;57706;56.326;43.882;2023-04-24T10:39:01;10.05;;;3.83;;
70301;SDS011;57706;56.326;43.882;2023-04-24T10:41:32;10.30;;;3.72;;
70301;SDS011;57706;56.326;43.882;2023-04-24T10:44:11;5.95;;;3.42;;
70301;SDS011;57706;56.326;43.882;2023-04-24T10:46:39;5.22;;;3.72;;
70301;SDS011;57706;56.326;43.882;2023-04-24T10:49:09;7.70;;;2.83;;
70301;SDS011;57706;56.326;43.882;2023-04-24T10:51:45;8.90;;;3.45;;
70301;SDS011;57706;56.326;43.882;2023-04-24T10:54:25;7.25;;;3.30;;
70301;SDS011;57706;56.326;43.882;2023-04-24T10:56:53;7.72;;;3.00;;
70301;SDS011;57706;56.326;43.882;2023-04-24T10:59:39;7.75;;;2.30;;
70301;SDS011;57706;56.326;43.882;2023-04-24T11:02:06;5.53;;;2.95;;
70301;SDS011;57706;56.326;43.882;2023-04-24T11:04:33;9.20;;;2.97;;
70301;SDS011;57706;56.326;43.882;2023-04-24T11:07:01;8.15;;;3.00;;
70301;SDS011;57706;56.326;43.882;2023-04-24T11:09:28;8.75;;;3.50;;
70301;SDS011;57706;56.326;43.882;2023-04-24T11:12:02;12.43;;;2.65;;
70301;SDS011;57706;56.326;43.882;2023-04-24T11:14:29;5.78;;;2.40;;
70301;SDS011;57706;56.326;43.882;2023-04-24T11:16:55;3.97;;;3.15;;
70301;SDS011;57706;56.326;43.882;2023-04-24T11:19:22;5.65;;;2.72;;
70301;SDS011;57706;56.326;43.882;2023-04-24T11:22:01;4.00;;;2.67;;
70301;SDS011;57706;56.326;43.882;2023-04-24T11:24:36;5.70;;;3.13;;
70301;SDS011;57706;56.326;43.882;2023-04-24T11:32:15;2.80;;;2.40;;
70301;SDS011;57706;56.326;43.882;2023-04-24T11:34:52;7.63;;;3.13;;
70301;SDS011;57706;56.326;43.882;2023-04-24T11:37:45;4.18;;;2.40;;
70301;SDS011;57706;56.326;43.882;2023-04-24T11:40:17;5.30;;;2.53;;
70301;SDS011;57706;56.326;43.882;2023-04-24T11:42:46;5.35;;;2.90;;
70301;SDS011;57706;56.326;43.882;2023-04-24T11:47:42;5.63;;;2.28;;
70301;SDS011;57706;56.326;43.882;2023-04-24T11:50:10;5.05;;;2.30;;
70301;SDS011;57706;56.326;43.882;2023-04-24T11:52:39;4.95;;;2.78;;
70301;SDS011;57706;56.326;43.882;2023-04-24T11:55:07;9.27;;;2.55;;
70301;SDS011;57706;56.326;43.882;2023-04-24T11:57:49;7.28;;;3.10;;
70301;SDS011;57706;56.326;43.882;2023-04-24T12:00:21;4.50;;;2.20;;
70301;SDS011;57706;56.326;43.882;2023-04-24T12:02:49;3.25;;;2.58;;
70301;SDS011;57706;56.326;43.882;2023-04-24T12:05:19;6.85;;;2.75;;
70301;SDS011;57706;56.326;43.882;2023-04-24T12:07:49;5.28;;;2.80;;
70301;SDS011;57706;56.326;43.882;2023-04-24T12:10:19;6.30;;;2.83;;
70301;SDS011;57706;56.326;43.882;2023-04-24T12:12:47;4.28;;;2.35;;
70301;SDS011;57706;56.326;43.882;2023-04-24T12:15:12;5.65;;;2.53;;
70301;SDS011;57706;56.326;43.882;2023-04-24T12:17:41;8.80;;;2.33;;
70301;SDS011;57706;56.326;43.882;2023-04-24T12:20:08;5.38;;;2.55;;
70301;SDS011;57706;56.326;43.882;2023-04-24T12:22:48;9.98;;;2.33;;
70301;SDS011;57706;56.326;43.882;2023-04-24T12:25:15;8.13;;;2.55;;
70301;SDS011;57706;56.326;43.882;2023-04-24T12:27:46;6.85;;;2.88;;
70301;SDS011;57706;56.326;43.882;2023-04-24T12:30:17;4.47;;;2.63;;
70301;SDS011;57706;56.326;43.882;2023-04-24T12:32:47;6.90;;;2.70;;
70301;SDS011;57706;56.326;43.882;2023-04-24T12:37:50;5.80;;;2.45;;
70301;SDS011;57706;56.326;43.882;2023-04-24T12:40:17;5.40;;;2.53;;
70301;SDS011;57706;56.326;43.882;2023-04-24T12:42:46;4.75;;;2.60;;
70301;SDS011;57706;56.326;43.882;2023-04-24T12:45:13;7.15;;;2.30;;
70301;SDS011;57706;56.326;43.882;2023-04-24T12:47:40;5.80;;;2.50;;
70301;SDS011;57706;56.326;43.882;2023-04-24T12:50:10;5.65;;;2.72;;
70301;SDS011;57706;56.326;43.882;2023-04-24T12:52:37;6.05;;;2.63;;
70301;SDS011;57706;56.326;43.882;2023-04-24T12:55:04;4.75;;;2.45;;
70301;SDS011;57706;56.326;43.882;2023-04-24T12:57:33;7.00;;;2.92;;
70301;SDS011;57706;56.326;43.882;2023-04-24T13:00:00;6.10;;;2.55;;
70301;SDS011;57706;56.326;43.882;2023-04-24T13:02:33;3.83;;;2.20;;
70301;SDS011;57706;56.326;43.882;2023-04-24T13:05:00;8.65;;;2.65;;
70301;SDS011;57706;56.326;43.882;2023-04-24T13:07:32;4.82;;;2.40;;
70301;SDS011;57706;56.326;43.882;2023-04-24T13:09:58;5.63;;;2.20;;
70301;SDS011;57706;56.326;43.882;2023-04-24T13:12:24;10.02;;;2.95;;
70301;SDS011;57706;56.326;43.882;2023-04-24T13:14:52;4.03;;;2.05;;
70301;SDS011;57706;56.326;43.882;2023-04-24T13:17:18;4.72;;;2.38;;
70301;SDS011;57706;56.326;43.882;2023-04-24T13:19:44;20.27;;;2.40;;
70301;SDS011;57706;56.326;43.882;2023-04-24T13:22:10;7.97;;;2.10;;
70301;SDS011;57706;56.326;43.882;2023-04-24T13:24:37;2.13;;;1.92;;
70301;SDS011;57706;56.326;43.882;2023-04-24T13:27:05;9.57;;;2.10;;
70301;SDS011;57706;56.326;43.882;2023-04-24T13:29:31;7.55;;;2.80;;
70301;SDS011;57706;56.326;43.882;2023-04-24T13:31:56;11.20;;;2.33;;
70301;SDS011;57706;56.326;43.882;2023-04-24T13:34:23;6.50;;;2.40;;
70301;SDS011;57706;56.326;43.882;2023-04-24T13:36:50;3.55;;;2.28;;
70301;SDS011;57706;56.326;43.882;2023-04-24T13:39:16;9.73;;;2.33;;
70301;SDS011;57706;56.326;43.882;2023-04-24T13:41:42;4.22;;;2.20;;
70301;SDS011;57706;56.326;43.882;2023-04-24T13:44:08;8.82;;;2.13;;
70301;SDS011;57706;56.326;43.882;2023-04-24T13:46:34;6.15;;;2.22;;
70301;SDS011;57706;56.326;43.882;2023-04-24T13:49:01;3.38;;;2.53;;
70301;SDS011;57706;56.326;43.882;2023-04-24T13:51:29;7.22;;;2.47;;
70301;SDS011;57706;56.326;43.882;2023-04-24T13:53:55;5.78;;;2.50;;
70301;SDS011;57706;56.326;43.882;2023-04-24T13:56:21;3.10;;;1.95;;
70301;SDS011;57706;56.326;43.882;2023-04-24T13:58:48;5.57;;;2.38;;
70301;SDS011;57706;56.326;43.882;2023-04-24T14:01:14;3.20;;;1.92;;
70301;SDS011;57706;56.326;43.882;2023-04-24T14:03:41;3.80;;;1.95;;
70301;SDS011;57706;56.326;43.882;2023-04-24T14:06:08;3.92;;;2.47;;
70301;SDS011;57706;56.326;43.882;2023-04-24T14:08:34;4.93;;;2.00;;
70301;SDS011;57706;56.326;43.882;2023-04-24T14:11:00;3.05;;;2.15;;
70301;SDS011;57706;56.326;43.882;2023-04-24T14:13:26;6.15;;;2.38;;
70301;SDS011;57706;56.326;43.882;2023-04-24T14:15:53;6.78;;;2.10;;
70301;SDS011;57706;56.326;43.882;2023-04-24T14:18:19;4.82;;;1.98;;
70301;SDS011;57706;56.326;43.882;2023-04-24T14:20:45;5.80;;;2.40;;
70301;SDS011;57706;56.326;43.882;2023-04-24T14:23:11;3.28;;;2.22;;
70301;SDS011;57706;56.326;43.882;2023-04-24T14:25:37;4.35;;;2.05;;
70301;SDS011;57706;56.326;43.882;2023-04-24T14:28:03;8.93;;;2.25;;
70301;SDS011;57706;56.326;43.882;2023-04-24T14:30:29;9.07;;;2.20;;
70301;SDS011;57706;56.326;43.882;2023-04-24T14:32:55;9.45;;;2.40;;
70301;SDS011;57706;56.326;43.882;2023-04-24T14:35:21;7.57;;;2.17;;
70301;SDS011;57706;56.326;43.882;2023-04-24T14:37:47;4.32;;;2.88;;
70301;SDS011;57706;56.326;43.882;2023-04-24T14:40:14;4.95;;;2.55;;
70301;SDS011;57706;56.326;43.882;2023-04-24T14:42:40;8.65;;;2.70;;
70301;SDS011;57706;56.326;43.882;2023-04-24T14:45:06;4.20;;;2.80;;